Time;durP1;ratioP1;P1;durP2;ratioP2;P2;SDS_P1;SDS_P2;PMS_P1;PMS_P2;Temp;Humidity;BMP_temperature;BMP_pressure;BME280_temperature;BME280_humidity;BME280_pressure;Samples;Min_cycle;Max_cycle;Signal;HPM_P1;HPM_P2
2022/12/19 00:00:35;;;;;;;22.77;11.73;;;-1.60;99.90;;;;;;4994164;28;20207;-64
2022/12/19 00:03:03;;;;;;;20.25;11.65;;;-1.60;99.90;;;;;;4994936;28;20679;-64
2022/12/19 00:05:30;;;;;;;18.55;9.43;;;-1.60;99.90;;;;;;4994687;28;20229;-64
2022/12/19 00:07:57;;;;;;;17.92;9.98;;;-1.60;99.90;;;;;;4995001;28;20226;-64
2022/12/19 00:10:23;;;;;;;23.08;11.70;;;-1.60;99.90;;;;;;4994076;28;20227;-64
2022/12/19 00:12:50;;;;;;;22.17;10.52;;;-1.60;99.90;;;;;;4994685;28;20233;-64
2022/12/19 00:15:17;;;;;;;21.20;10.50;;;-1.50;99.90;;;;;;4994474;28;20210;-64
2022/12/19 00:17:43;;;;;;;21.50;11.52;;;-1.60;99.90;;;;;;4994560;28;20728;-64
2022/12/19 00:20:12;;;;;;;20.90;10.98;;;-1.60;99.90;;;;;;4994570;28;20216;-64
2022/12/19 00:22:39;;;;;;;18.58;10.75;;;-1.60;99.90;;;;;;4994115;28;20207;-64
2022/12/19 00:25:06;;;;;;;22.65;11.57;;;-1.60;99.90;;;;;;4994575;28;20208;-64
2022/12/19 00:27:34;;;;;;;25.65;11.63;;;-1.60;99.90;;;;;;4994102;28;20327;-64
2022/12/19 00:30:01;;;;;;;22.80;11.45;;;-1.50;99.90;;;;;;4994495;28;20214;-64
2022/12/19 00:32:28;;;;;;;22.65;12.68;;;-1.50;99.90;;;;;;4993598;28;20211;-64
2022/12/19 00:34:54;;;;;;;23.80;11.27;;;-1.50;99.90;;;;;;4994685;28;20200;-64
2022/12/19 00:37:23;;;;;;;24.52;10.55;;;-1.60;99.90;;;;;;4994079;28;20226;-64
2022/12/19 00:39:49;;;;;;;28.35;12.13;;;-1.60;99.90;;;;;;4994165;28;20211;-64
2022/12/19 00:42:16;;;;;;;23.20;11.30;;;-1.60;99.90;;;;;;4993545;28;20203;-64
2022/12/19 00:44:43;;;;;;;19.50;11.88;;;-1.70;99.90;;;;;;4994092;28;20231;-64
2022/12/19 00:47:09;;;;;;;18.83;9.80;;;-1.70;99.90;;;;;;4994026;28;20232;-64
2022/12/19 00:49:36;;;;;;;17.17;11.52;;;-1.70;99.90;;;;;;4993915;28;20212;-64
2022/12/19 00:52:03;;;;;;;29.10;13.07;;;-1.70;99.90;;;;;;4993491;28;20684;-64
2022/12/19 00:54:31;;;;;;;24.00;11.20;;;-1.70;99.90;;;;;;4993934;28;20207;-64
2022/12/19 00:56:58;;;;;;;19.80;11.43;;;-1.60;99.90;;;;;;4993762;28;20204;-64
2022/12/19 00:59:24;;;;;;;24.25;11.57;;;-1.60;99.90;;;;;;4993767;28;20208;-64
2022/12/19 01:01:51;;;;;;;21.98;9.80;;;-1.70;99.90;;;;;;4993399;28;20237;-64
2022/12/19 01:04:18;;;;;;;25.33;11.55;;;-1.60;99.90;;;;;;4993902;28;20569;-64
2022/12/19 01:06:44;;;;;;;24.27;12.30;;;-1.70;99.90;;;;;;4993872;28;20219;-64
2022/12/19 01:09:12;;;;;;;21.73;11.65;;;-1.60;99.90;;;;;;4993727;28;20215;-64
2022/12/19 01:14:21;;;;;;;23.08;12.15;;;-1.60;99.90;;;;;;4960574;28;20208;-64
2022/12/19 01:16:48;;;;;;;21.40;10.15;;;-1.50;99.90;;;;;;4993705;28;20203;-64
2022/12/19 01:19:14;;;;;;;29.15;11.40;;;-1.50;99.90;;;;;;4993088;28;20207;-64
2022/12/19 01:21:41;;;;;;;24.08;13.07;;;-1.40;99.90;;;;;;4992878;28;20207;-64
2022/12/19 01:24:08;;;;;;;26.92;12.45;;;-1.40;99.90;;;;;;4992822;28;20425;-64
2022/12/19 01:26:35;;;;;;;21.77;10.98;;;-1.40;99.90;;;;;;4992810;28;20227;-64
2022/12/19 01:29:04;;;;;;;25.20;11.35;;;-1.30;99.90;;;;;;4992993;28;20317;-64
2022/12/19 01:31:31;;;;;;;23.67;10.85;;;-1.40;99.90;;;;;;4992286;28;20231;-64
2022/12/19 01:33:59;;;;;;;18.70;10.27;;;-1.30;99.90;;;;;;4993426;28;20199;-65
2022/12/19 01:36:26;;;;;;;25.85;11.48;;;-1.30;99.90;;;;;;4993012;28;20211;-65
2022/12/19 01:38:55;;;;;;;21.02;12.15;;;-1.30;99.90;;;;;;4993261;28;20250;-65
2022/12/19 01:41:22;;;;;;;23.20;10.60;;;-1.30;99.90;;;;;;4992317;28;20208;-65
2022/12/19 01:43:57;;;;;;;22.70;10.15;;;-1.30;99.90;;;;;;4993174;28;20562;-65
2022/12/19 01:46:30;;;;;;;26.80;11.43;;;-1.30;99.90;;;;;;4992879;28;20826;-65
2022/12/19 01:48:57;;;;;;;15.05;9.77;;;-1.20;99.90;;;;;;4992835;28;20223;-64
2022/12/19 01:51:26;;;;;;;19.02;9.32;;;-1.20;99.90;;;;;;4992376;28;20203;-64
2022/12/19 01:53:58;;;;;;;24.55;12.45;;;-1.20;99.90;;;;;;4992833;28;20565;-65
2022/12/19 01:56:30;;;;;;;17.55;10.25;;;-1.20;99.90;;;;;;4992746;28;20199;-65
2022/12/19 01:59:00;;;;;;;21.50;11.50;;;-1.10;99.90;;;;;;4992583;28;20231;-65
2022/12/19 02:01:28;;;;;;;21.05;10.48;;;-1.10;99.90;;;;;;4991350;28;20210;-64
2022/12/19 02:03:56;;;;;;;20.95;11.43;;;-1.20;99.90;;;;;;4992960;28;20207;-65
2022/12/19 02:06:24;;;;;;;24.35;11.30;;;-1.20;99.90;;;;;;4992540;28;20585;-65
2022/12/19 02:08:51;;;;;;;17.50;10.40;;;-1.10;99.90;;;;;;4992612;28;20229;-65
2022/12/19 02:11:19;;;;;;;24.40;11.50;;;-1.20;99.90;;;;;;4991733;28;20203;-65
2022/12/19 02:13:46;;;;;;;26.73;12.23;;;-1.10;99.90;;;;;;4992320;28;20950;-64
2022/12/19 02:16:23;;;;;;;23.38;10.05;;;-1.10;99.90;;;;;;4992256;28;20667;-65
2022/12/19 02:18:58;;;;;;;24.08;11.77;;;-1.10;99.90;;;;;;4992421;28;20223;-64
2022/12/19 02:21:44;;;;;;;23.42;11.15;;;-1.10;99.90;;;;;;4992045;28;20207;-64
2022/12/19 02:24:35;;;;;;;22.98;12.45;;;-1.10;99.90;;;;;;4992102;28;20203;-64
2022/12/19 02:27:30;;;;;;;18.70;10.25;;;-1.10;99.90;;;;;;4992197;28;20231;-65
2022/12/19 02:30:09;;;;;;;23.77;12.30;;;-1.00;99.90;;;;;;4992312;28;20203;-64
2022/12/19 02:32:47;;;;;;;19.63;10.20;;;-1.00;99.90;;;;;;4991828;28;20257;-65
2022/12/19 02:35:23;;;;;;;20.55;11.70;;;-1.00;99.90;;;;;;4991868;28;20210;-65
2022/12/19 02:37:56;;;;;;;18.08;10.25;;;-1.00;99.90;;;;;;4991991;28;20222;-65
2022/12/19 02:40:26;;;;;;;20.27;10.93;;;-1.00;99.90;;;;;;4991256;28;20599;-65
2022/12/19 02:42:57;;;;;;;23.33;10.50;;;-1.00;99.90;;;;;;4991933;28;20210;-65
2022/12/19 02:45:25;;;;;;;17.65;11.07;;;-0.90;99.90;;;;;;4991673;28;20683;-65
2022/12/19 02:47:54;;;;;;;18.13;11.00;;;-0.90;99.90;;;;;;4991811;28;20712;-64
2022/12/19 02:50:21;;;;;;;24.90;11.30;;;-0.80;99.90;;;;;;4991237;28;20209;-64
2022/12/19 02:52:48;;;;;;;23.58;11.48;;;-0.80;99.90;;;;;;4992173;28;20203;-64
2022/12/19 02:55:21;;;;;;;22.65;9.75;;;-0.80;99.90;;;;;;4991631;28;20208;-64
2022/12/19 02:58:23;;;;;;;21.50;9.25;;;-0.70;99.90;;;;;;4991672;28;20237;-64
2022/12/19 03:00:56;;;;;;;24.10;10.43;;;-0.70;99.90;;;;;;4978313;28;20211;-64
2022/12/19 03:03:35;;;;;;;21.63;10.68;;;-0.60;99.90;;;;;;4991409;28;20204;-64
2022/12/19 03:06:11;;;;;;;20.67;9.93;;;-0.60;99.90;;;;;;4991474;28;20204;-64
2022/12/19 03:08:45;;;;;;;25.55;10.70;;;-0.50;99.90;;;;;;4991416;28;20235;-64
2022/12/19 03:11:13;;;;;;;16.30;8.95;;;-0.50;99.90;;;;;;4990711;28;20218;-64
2022/12/19 03:13:47;;;;;;;15.10;10.10;;;-0.50;99.90;;;;;;4991646;28;20211;-64
2022/12/19 03:16:14;;;;;;;17.77;10.00;;;-0.50;99.90;;;;;;4991353;28;20203;-64
2022/12/19 03:18:43;;;;;;;14.98;8.90;;;-0.50;99.90;;;;;;4991507;28;20219;-64
2022/12/19 03:21:15;;;;;;;13.13;7.47;;;-0.40;99.90;;;;;;4990632;28;20210;-64
2022/12/19 03:23:43;;;;;;;15.93;7.70;;;-0.40;99.90;;;;;;4991519;28;20203;-65
2022/12/19 03:26:14;;;;;;;15.55;8.88;;;-0.40;99.90;;;;;;4991163;28;20218;-64
2022/12/19 03:28:47;;;;;;;18.23;10.10;;;-0.30;99.90;;;;;;4991357;28;20231;-64
2022/12/19 03:31:17;;;;;;;22.88;11.73;;;-0.30;99.90;;;;;;4990657;28;20214;-64
2022/12/19 03:33:49;;;;;;;15.90;9.88;;;-0.20;99.90;;;;;;4991149;28;20563;-64
2022/12/19 03:36:20;;;;;;;18.55;8.68;;;-0.20;99.90;;;;;;4991329;28;20214;-64
2022/12/19 03:38:48;;;;;;;23.00;9.75;;;-0.20;99.90;;;;;;4991199;28;20230;-64
2022/12/19 03:43:07;;;;;;;21.02;11.32;;;-0.10;99.90;;;;;;4990575;28;20671;-64
2022/12/19 03:44:06;;;;;;;21.08;9.38;;;-0.10;99.90;;;;;;4990693;28;20286;-64
2022/12/19 03:46:37;;;;;;;23.20;10.63;;;-0.10;99.90;;;;;;4991209;28;20290;-64
2022/12/19 03:49:05;;;;;;;18.25;9.43;;;0.00;99.90;;;;;;4990874;28;20226;-64
2022/12/19 03:51:41;;;;;;;18.50;9.15;;;0.00;99.90;;;;;;4990779;28;20262;-64
2022/12/19 03:54:13;;;;;;;22.23;10.88;;;0.00;99.90;;;;;;4991426;28;20203;-64
2022/12/19 03:56:42;;;;;;;17.27;10.30;;;0.00;99.90;;;;;;4991212;28;20563;-64
2022/12/19 03:59:16;;;;;;;20.88;9.73;;;0.10;99.90;;;;;;4990929;28;20253;-64
2022/12/19 04:01:43;;;;;;;15.13;9.98;;;0.10;99.90;;;;;;4990840;28;20607;-64
2022/12/19 04:04:13;;;;;;;22.05;9.40;;;0.10;99.90;;;;;;4990852;28;20207;-64
2022/12/19 04:06:41;;;;;;;16.45;10.10;;;0.20;99.90;;;;;;4990983;28;20211;-64
2022/12/19 04:09:10;;;;;;;17.42;9.52;;;0.20;99.90;;;;;;4990889;28;20575;-64
2022/12/19 04:11:41;;;;;;;18.75;9.60;;;0.30;99.90;;;;;;4990444;28;20203;-65
2022/12/19 04:14:14;;;;;;;25.42;11.82;;;0.30;99.90;;;;;;4990756;28;20203;-64
2022/12/19 04:16:47;;;;;;;16.42;8.30;;;0.30;99.90;;;;;;4990968;28;20670;-65
2022/12/19 04:19:19;;;;;;;18.17;9.68;;;0.30;99.90;;;;;;4990517;28;20200;-64
2022/12/19 04:21:52;;;;;;;13.57;8.90;;;0.30;99.90;;;;;;4990560;28;20208;-64
2022/12/19 04:24:24;;;;;;;16.00;8.55;;;0.30;99.90;;;;;;4994602;28;20208;-64
2022/12/19 04:26:54;;;;;;;17.52;9.30;;;0.40;99.90;;;;;;5013939;28;20206;-64
2022/12/19 04:29:22;;;;;;;17.63;10.10;;;0.40;99.90;;;;;;5013810;28;20691;-64
2022/12/19 04:31:49;;;;;;;11.98;7.53;;;0.40;99.90;;;;;;5013658;28;20207;-64
2022/12/19 04:34:20;;;;;;;12.55;8.23;;;0.50;99.90;;;;;;5013714;28;20198;-64
2022/12/19 04:36:47;;;;;;;13.35;7.15;;;0.50;99.90;;;;;;5006905;28;20303;-64
2022/12/19 04:39:14;;;;;;;14.98;8.30;;;0.50;99.90;;;;;;4984044;28;20202;-64
2022/12/19 04:41:41;;;;;;;17.30;9.70;;;0.50;99.90;;;;;;4982732;28;20202;-64
2022/12/19 04:44:08;;;;;;;16.38;9.60;;;0.50;99.90;;;;;;4982335;28;20192;-64
2022/12/19 04:46:34;;;;;;;24.73;10.98;;;0.50;99.90;;;;;;4982128;28;20632;-64
2022/12/19 04:49:01;;;;;;;17.35;9.88;;;0.50;99.90;;;;;;4982970;28;20215;-64
2022/12/19 04:51:29;;;;;;;16.20;9.35;;;0.60;99.90;;;;;;4983356;28;20203;-65
2022/12/19 04:53:56;;;;;;;17.92;9.57;;;0.60;99.90;;;;;;4982113;28;20199;-64
2022/12/19 04:56:23;;;;;;;24.20;9.80;;;0.60;99.90;;;;;;4982564;28;20207;-64
2022/12/19 04:58:49;;;;;;;19.52;9.27;;;0.50;99.90;;;;;;4983748;28;20208;-64
2022/12/19 05:01:17;;;;;;;17.38;9.57;;;0.50;99.90;;;;;;4981309;28;20211;-64
2022/12/19 05:03:43;;;;;;;19.98;10.93;;;0.50;99.90;;;;;;4981933;28;20258;-64
2022/12/19 05:06:13;;;;;;;16.80;9.70;;;0.50;99.90;;;;;;4983497;28;20204;-64
2022/12/19 05:08:43;;;;;;;11.25;7.43;;;0.60;99.90;;;;;;4982920;28;20220;-64
2022/12/19 05:11:11;;;;;;;18.45;8.63;;;0.60;99.90;;;;;;4981058;28;20251;-64
2022/12/19 05:13:38;;;;;;;16.08;9.85;;;0.60;99.90;;;;;;4984071;28;20295;-63
2022/12/19 05:16:08;;;;;;;14.45;8.98;;;0.60;99.90;;;;;;4985442;28;20202;-64
2022/12/19 05:18:35;;;;;;;15.27;7.85;;;0.60;99.90;;;;;;4984214;28;20222;-64
2022/12/19 05:21:02;;;;;;;16.38;10.02;;;0.60;99.90;;;;;;4981675;28;20208;-64
2022/12/19 05:23:29;;;;;;;16.05;8.68;;;0.60;99.90;;;;;;4981688;28;20617;-64
2022/12/19 05:25:59;;;;;;;16.38;8.20;;;0.60;99.90;;;;;;4986335;28;20572;-64
2022/12/19 05:28:27;;;;;;;15.25;8.00;;;0.60;99.90;;;;;;4985084;28;20710;-64
2022/12/19 05:31:03;;;;;;;17.45;9.43;;;0.60;99.90;;;;;;4992845;28;20674;-64
2022/12/19 05:33:29;;;;;;;16.20;8.57;;;0.70;99.90;;;;;;4993468;28;20203;-64
2022/12/19 05:35:57;;;;;;;16.48;9.10;;;0.70;99.90;;;;;;4991759;28;20200;-64
2022/12/19 05:38:23;;;;;;;17.67;8.90;;;0.80;99.90;;;;;;4992653;28;20230;-64
2022/12/19 05:40:50;;;;;;;13.57;7.88;;;0.80;99.90;;;;;;4992668;28;20225;-64
2022/12/19 05:43:18;;;;;;;17.25;9.68;;;0.90;99.90;;;;;;4992964;28;20671;-64
2022/12/19 05:45:45;;;;;;;14.63;7.65;;;0.90;99.90;;;;;;4992995;28;20697;-63
2022/12/19 05:48:12;;;;;;;16.23;8.77;;;0.90;99.90;;;;;;4992734;28;20234;-63
2022/12/19 05:50:39;;;;;;;18.15;9.07;;;0.90;99.90;;;;;;4992532;28;20234;-63
2022/12/19 05:53:06;;;;;;;16.23;8.35;;;0.90;99.90;;;;;;4992943;28;20203;-63
2022/12/19 05:55:33;;;;;;;17.35;6.95;;;1.00;99.90;;;;;;4993000;28;20575;-63
2022/12/19 05:57:59;;;;;;;18.13;9.05;;;1.00;99.90;;;;;;4992876;28;20250;-63
2022/12/19 06:00:27;;;;;;;14.73;8.27;;;1.00;99.90;;;;;;4992298;28;20215;-64
2022/12/19 06:02:54;;;;;;;15.35;7.13;;;1.00;99.90;;;;;;4992618;28;20218;-64
2022/12/19 06:05:21;;;;;;;14.52;8.07;;;1.00;99.90;;;;;;4992956;28;20207;-64
2022/12/19 06:07:47;;;;;;;16.55;8.52;;;1.00;99.90;;;;;;4992642;28;20223;-63
2022/12/19 06:10:14;;;;;;;15.15;8.18;;;1.10;99.90;;;;;;4992377;28;20212;-63
2022/12/19 06:12:41;;;;;;;13.23;7.45;;;1.10;99.90;;;;;;5001824;28;20242;-63
2022/12/19 06:15:09;;;;;;;12.85;8.43;;;1.00;99.90;;;;;;5012184;28;20559;-64
2022/12/19 06:17:37;;;;;;;13.75;7.60;;;1.10;99.90;;;;;;5010572;28;20233;-64
2022/12/19 06:20:05;;;;;;;15.23;7.50;;;1.00;99.90;;;;;;5012549;28;20630;-63
2022/12/19 06:22:32;;;;;;;10.50;7.05;;;1.00;99.90;;;;;;5011417;28;20696;-63
2022/12/19 06:24:58;;;;;;;10.05;7.60;;;1.10;99.90;;;;;;5010512;28;20210;-64
2022/12/19 06:27:25;;;;;;;17.85;9.45;;;1.20;99.90;;;;;;5011918;28;20227;-64
2022/12/19 06:29:52;;;;;;;14.50;7.78;;;1.20;99.90;;;;;;5011874;28;20230;-64
2022/12/19 06:32:19;;;;;;;15.15;8.35;;;1.20;99.90;;;;;;5011243;28;20229;-63
2022/12/19 06:34:47;;;;;;;18.15;7.38;;;1.20;99.90;;;;;;5011217;28;20214;-64
2022/12/19 06:37:14;;;;;;;15.18;7.93;;;1.20;99.90;;;;;;5010536;28;20329;-64
2022/12/19 06:39:41;;;;;;;14.15;6.25;;;1.30;99.90;;;;;;5011536;28;20198;-64
2022/12/19 06:42:23;;;;;;;12.13;7.40;;;1.30;99.90;;;;;;5010586;28;20597;-63
2022/12/19 06:44:51;;;;;;;15.20;7.15;;;1.30;99.90;;;;;;5011325;28;20253;-64
2022/12/19 06:47:18;;;;;;;12.77;7.80;;;1.30;99.90;;;;;;4998231;28;20224;-64
2022/12/19 06:49:45;;;;;;;13.00;7.68;;;1.30;99.90;;;;;;4991729;28;20238;-64
2022/12/19 06:52:13;;;;;;;14.75;7.60;;;1.40;99.90;;;;;;4990769;28;20579;-63
2022/12/19 06:54:40;;;;;;;17.02;8.00;;;1.40;99.90;;;;;;4991694;28;20214;-64
2022/12/19 06:57:07;;;;;;;15.18;7.45;;;1.40;99.90;;;;;;4991276;28;20709;-64
2022/12/19 06:59:33;;;;;;;13.27;7.47;;;1.40;99.90;;;;;;4991516;28;20200;-63
2022/12/19 07:02:06;;;;;;;13.25;8.90;;;1.30;99.90;;;;;;4991243;28;20214;-63
2022/12/19 07:04:37;;;;;;;18.65;8.43;;;1.40;99.90;;;;;;4991320;28;20216;-63
2022/12/19 07:07:05;;;;;;;12.82;7.97;;;1.40;99.90;;;;;;4991620;28;20220;-63
2022/12/19 07:09:34;;;;;;;13.48;9.68;;;1.40;99.90;;;;;;4991200;28;20725;-64
2022/12/19 07:12:01;;;;;;;11.00;8.05;;;1.40;99.90;;;;;;4990836;28;20219;-64
2022/12/19 07:14:27;;;;;;;10.13;6.80;;;1.40;99.90;;;;;;4990979;28;20666;-64
2022/12/19 07:16:57;;;;;;;18.48;8.27;;;1.40;99.90;;;;;;4991295;28;20207;-64
2022/12/19 07:19:26;;;;;;;12.40;7.82;;;1.40;99.90;;;;;;4991118;28;20207;-65
2022/12/19 07:21:52;;;;;;;14.95;7.35;;;1.40;99.90;;;;;;4990982;28;20208;-64
2022/12/19 07:24:19;;;;;;;11.57;8.93;;;1.50;99.90;;;;;;4990960;28;20667;-64
2022/12/19 07:26:47;;;;;;;17.90;8.02;;;1.50;99.90;;;;;;4991045;28;20199;-63
2022/12/19 07:29:16;;;;;;;10.27;6.50;;;1.50;99.90;;;;;;5044094;23;20227;-93
2022/12/19 07:31:43;;;;;;;13.43;8.60;;;1.50;99.90;;;;;;5002662;28;20233;-91
2022/12/19 07:34:10;;;;;;;10.50;8.25;;;1.60;99.90;;;;;;4998662;28;20206;-91
2022/12/19 07:36:37;;;;;;;14.60;7.63;;;1.60;99.90;;;;;;5005869;28;20226;-91
2022/12/19 07:39:04;;;;;;;15.75;8.80;;;1.60;99.90;;;;;;4984171;28;20243;-89
2022/12/19 07:41:31;;;;;;;12.73;6.80;;;1.70;99.90;;;;;;4985039;28;20207;-92
2022/12/19 07:49:09;;;;;;;18.45;7.82;;;1.80;99.90;;;;;;4978684;28;20252;-92
2022/12/19 07:51:36;;;;;;;16.13;7.20;;;1.80;99.90;;;;;;4974698;28;20200;-91
2022/12/19 07:54:04;;;;;;;14.05;8.20;;;1.90;99.90;;;;;;4975170;28;20302;-91
2022/12/19 07:56:31;;;;;;;12.05;8.07;;;1.90;99.90;;;;;;4989619;28;20211;-91
2022/12/19 07:59:02;;;;;;;13.50;8.60;;;1.90;99.90;;;;;;4996671;28;20279;-91
2022/12/19 08:01:30;;;;;;;11.52;6.95;;;1.90;99.90;;;;;;4998588;28;20230;-92
2022/12/19 08:03:59;;;;;;;14.50;7.30;;;2.00;99.90;;;;;;5000090;28;20203;-92
2022/12/19 08:06:30;;;;;;;15.65;7.25;;;2.10;99.90;;;;;;5019004;28;20199;-91
2022/12/19 08:08:57;;;;;;;9.48;6.07;;;2.10;99.90;;;;;;5012269;23;20235;-68
2022/12/19 08:11:26;;;;;;;16.60;8.05;;;2.10;99.90;;;;;;4994487;28;20279;-68
2022/12/19 08:13:53;;;;;;;13.30;8.02;;;2.20;99.90;;;;;;4995406;28;20211;-68
2022/12/19 08:16:20;;;;;;;12.55;7.70;;;2.20;99.90;;;;;;4994963;28;20680;-68
2022/12/19 08:18:47;;;;;;;11.50;6.72;;;2.20;99.90;;;;;;4990068;28;20232;-68
2022/12/19 08:21:14;;;;;;;13.52;7.90;;;2.20;99.90;;;;;;4985941;28;20207;-68
2022/12/19 08:23:42;;;;;;;10.52;7.03;;;2.30;99.90;;;;;;4988114;28;20211;-68
2022/12/19 08:26:12;;;;;;;13.70;6.78;;;2.40;99.90;;;;;;4993831;28;20213;-69
2022/12/19 08:28:39;;;;;;;11.93;7.07;;;2.40;99.90;;;;;;4993526;28;20223;-68
2022/12/19 08:31:07;;;;;;;10.35;6.38;;;2.50;99.90;;;;;;4993741;28;20215;-68
2022/12/19 08:33:34;;;;;;;11.93;5.65;;;2.60;99.90;;;;;;4997040;28;20208;-68
2022/12/19 08:36:04;;;;;;;9.35;5.60;;;2.60;99.90;;;;;;4996043;28;20667;-70
2022/12/19 08:38:30;;;;;;;11.27;6.18;;;2.70;99.90;;;;;;4995974;28;20222;-68
2022/12/19 08:40:59;;;;;;;10.70;6.43;;;2.80;99.90;;;;;;4994710;28;20650;-68
2022/12/19 08:43:26;;;;;;;12.52;7.38;;;2.80;99.90;;;;;;4994614;28;20207;-68
2022/12/19 08:45:53;;;;;;;14.32;7.82;;;2.90;99.90;;;;;;4994285;28;20204;-68
2022/12/19 08:48:20;;;;;;;10.05;7.43;;;2.90;99.90;;;;;;4994269;28;20706;-68
2022/12/19 08:50:51;;;;;;;9.82;5.63;;;2.90;99.90;;;;;;4998755;28;20272;-68
2022/12/19 08:53:18;;;;;;;15.48;7.82;;;2.90;99.90;;;;;;4994564;28;20207;-68
2022/12/19 08:55:47;;;;;;;9.98;6.25;;;3.00;99.90;;;;;;4992382;28;20219;-68
2022/12/19 08:58:16;;;;;;;9.63;5.68;;;3.00;99.90;;;;;;4994107;28;20255;-68
2022/12/19 09:00:43;;;;;;;12.50;6.80;;;3.00;99.90;;;;;;4993020;28;20215;-68
2022/12/19 09:03:10;;;;;;;8.55;5.18;;;3.10;99.90;;;;;;4992604;28;20249;-70
2022/12/19 09:05:37;;;;;;;10.00;6.50;;;3.10;99.90;;;;;;4991816;28;20266;-69
2022/12/19 09:08:04;;;;;;;9.63;6.45;;;3.20;99.90;;;;;;4992132;28;20234;-69
2022/12/19 09:10:31;;;;;;;9.95;5.78;;;3.20;99.90;;;;;;4991236;28;20273;-69
2022/12/19 09:12:58;;;;;;;13.70;7.45;;;3.30;99.90;;;;;;4992524;28;20207;-69
2022/12/19 09:15:26;;;;;;;9.40;5.63;;;3.40;99.90;;;;;;4993125;28;20591;-70
2022/12/19 09:17:53;;;;;;;11.20;6.40;;;3.40;99.90;;;;;;4992952;28;20223;-69
2022/12/19 09:20:20;;;;;;;11.55;5.65;;;3.40;99.90;;;;;;4992601;28;20231;-69
2022/12/19 09:22:52;;;;;;;15.38;8.30;;;3.50;99.90;;;;;;4995782;28;20235;-69
2022/12/19 09:25:25;;;;;;;12.25;6.35;;;3.60;99.90;;;;;;5358911;23;20256;-93
2022/12/19 09:28:51;;;;;;;8.73;5.90;;;3.70;99.90;;;;;;4972127;28;20217;-91
2022/12/19 09:31:22;;;;;;;11.20;6.30;;;3.80;99.90;;;;;;4962396;28;20706;-91
2022/12/19 09:33:50;;;;;;;9.48;5.70;;;3.90;99.90;;;;;;4962363;28;20205;-91
2022/12/19 09:36:19;;;;;;;11.95;7.55;;;4.00;99.90;;;;;;4962262;28;20216;-91
2022/12/19 09:38:47;;;;;;;13.45;7.35;;;4.20;99.90;;;;;;4962546;28;20711;-91
2022/12/19 09:41:32;;;;;;;11.30;7.10;;;4.40;99.90;;;;;;4961174;28;20216;-90
2022/12/19 09:44:09;;;;;;;13.40;7.57;;;4.70;99.90;;;;;;4959902;28;20662;-90
2022/12/19 09:46:51;;;;;;;10.55;6.50;;;4.80;99.90;;;;;;4959593;28;20765;-91
2022/12/19 09:49:21;;;;;;;13.57;6.55;;;4.80;99.90;;;;;;4959542;28;20229;-90
2022/12/19 09:51:54;;;;;;;10.32;6.72;;;4.70;99.90;;;;;;4960530;29;20287;-90
2022/12/19 09:54:27;;;;;;;10.30;5.93;;;4.60;99.90;;;;;;4959883;29;20663;-90
2022/12/19 09:57:15;;;;;;;10.70;6.05;;;4.60;99.90;;;;;;4960363;28;20205;-91
2022/12/19 09:59:50;;;;;;;10.15;7.55;;;4.70;99.90;;;;;;4959841;29;20602;-91
2022/12/19 10:02:40;;;;;;;13.02;7.68;;;4.80;99.90;;;;;;4958054;29;20295;-92
2022/12/19 10:05:16;;;;;;;9.07;6.43;;;4.90;99.90;;;;;;4959172;29;20204;-92
2022/12/19 10:07:44;;;;;;;8.68;5.25;;;5.20;99.90;;;;;;4959454;28;20228;-91
2022/12/19 10:10:15;;;;;;;12.48;5.70;;;5.40;99.90;;;;;;4959347;28;20204;-92
2022/12/19 10:13:17;;;;;;;8.77;6.10;;;5.70;99.90;;;;;;4959667;28;20602;-91
2022/12/19 10:15:51;;;;;;;10.27;6.15;;;5.80;99.90;;;;;;4961906;28;20302;-92
2022/12/19 10:18:39;;;;;;;8.98;6.38;;;5.90;99.90;;;;;;4960139;28;20739;-92
2022/12/19 10:21:11;;;;;;;9.10;6.03;;;5.70;99.90;;;;;;4959310;28;20207;-92
2022/12/19 10:23:57;;;;;;;7.57;5.05;;;5.60;99.90;;;;;;4960868;28;20217;-92
2022/12/19 10:26:40;;;;;;;9.45;5.55;;;5.50;99.90;;;;;;4959843;28;20305;-92
2022/12/19 10:29:28;;;;;;;7.00;4.85;;;5.50;99.90;;;;;;4958995;28;20217;-92
2022/12/19 10:32:03;;;;;;;11.75;6.38;;;5.40;99.90;;;;;;4958703;29;20182;-92
2022/12/19 10:34:36;;;;;;;10.80;6.35;;;5.50;99.90;;;;;;4956734;29;20200;-92
2022/12/19 10:37:14;;;;;;;11.18;5.53;;;5.70;99.90;;;;;;4956962;28;20222;-91
2022/12/19 10:39:51;;;;;;;9.55;6.25;;;6.40;99.90;;;;;;4956300;28;20227;-92
2022/12/19 10:42:27;;;;;;;9.70;5.85;;;7.70;99.90;;;;;;4957046;29;20218;-91
2022/12/19 10:44:57;;;;;;;7.13;5.57;;;8.70;99.90;;;;;;4956278;28;20215;-91
2022/12/19 10:47:24;;;;;;;9.82;6.35;;;9.20;99.90;;;;;;4956438;28;20223;-92
2022/12/19 10:49:52;;;;;;;10.95;5.90;;;9.50;99.90;;;;;;4962024;29;20201;-92
2022/12/19 10:52:59;;;;;;;11.57;5.93;;;9.60;99.90;;;;;;4971866;28;20201;-92
2022/12/19 10:55:47;;;;;;;11.85;6.32;;;9.70;99.90;;;;;;4957349;29;20223;-91
2022/12/19 10:58:23;;;;;;;7.30;6.35;;;8.90;99.90;;;;;;4956252;28;20232;-92
2022/12/19 11:01:01;;;;;;;7.90;5.75;;;8.40;99.90;;;;;;4955567;28;20777;-92
2022/12/19 11:03:29;;;;;;;10.85;6.40;;;7.80;99.90;;;;;;4956203;28;20212;-91
2022/12/19 11:05:58;;;;;;;11.00;6.35;;;7.50;99.90;;;;;;4958443;28;20215;-91
2022/12/19 11:08:26;;;;;;;8.05;5.70;;;7.40;99.90;;;;;;4963169;28;20320;-92
2022/12/19 11:10:55;;;;;;;6.85;5.22;;;7.40;99.90;;;;;;4965263;28;20208;-91
2022/12/19 11:13:26;;;;;;;8.93;6.03;;;7.70;99.90;;;;;;4964489;28;20201;-91
2022/12/19 11:15:55;;;;;;;10.13;6.07;;;7.90;99.90;;;;;;4970287;28;20215;-90
2022/12/19 11:18:23;;;;;;;8.77;5.40;;;8.30;99.90;;;;;;4971166;28;20216;-89
2022/12/19 11:21:00;;;;;;;10.35;6.25;;;8.90;99.90;;;;;;4967838;28;20242;-90
2022/12/19 11:23:29;;;;;;;9.27;6.75;;;9.80;99.90;;;;;;4969742;28;20195;-92
2022/12/19 11:26:00;;;;;;;7.80;6.13;;;10.40;99.90;;;;;;4967680;28;20209;-92
2022/12/19 11:28:32;;;;;;;8.00;5.78;;;11.00;99.90;;;;;;4958187;28;20224;-92
2022/12/19 11:31:04;;;;;;;11.13;6.38;;;11.40;99.90;;;;;;4959371;28;20237;-92
2022/12/19 11:33:31;;;;;;;8.30;5.25;;;11.70;99.90;;;;;;4962741;28;20207;-92
2022/12/19 11:36:02;;;;;;;6.18;4.97;;;11.60;99.90;;;;;;4962636;28;20255;-92
2022/12/19 11:38:40;;;;;;;11.25;6.57;;;11.30;99.90;;;;;;4962974;28;20228;-92
2022/12/19 11:41:14;;;;;;;9.30;6.35;;;10.20;99.90;;;;;;4960754;28;20722;-92
2022/12/19 11:43:49;;;;;;;12.35;6.00;;;9.60;99.90;;;;;;4961067;29;20217;-92
2022/12/19 11:46:46;;;;;;;9.05;6.25;;;9.30;99.90;;;;;;4963888;28;20264;-91
2022/12/19 11:49:25;;;;;;;9.70;5.60;;;9.10;99.90;;;;;;4972031;28;20228;-92
2022/12/19 11:51:58;;;;;;;10.95;5.95;;;9.00;99.90;;;;;;4964453;29;20268;-91
2022/12/19 11:54:32;;;;;;;7.68;5.65;;;8.80;99.90;;;;;;4962589;28;20232;-90
2022/12/19 11:56:59;;;;;;;7.35;5.25;;;8.80;99.90;;;;;;4962688;28;20294;-90
2022/12/19 11:59:31;;;;;;;8.77;4.90;;;8.50;99.90;;;;;;4963840;28;20712;-90
2022/12/19 12:02:20;;;;;;;7.05;5.60;;;8.30;99.90;;;;;;4962309;28;20217;-90
2022/12/19 12:05:22;;;;;;;8.45;5.38;;;8.40;99.90;;;;;;4962050;28;20238;-90
2022/12/19 12:08:00;;;;;;;11.07;6.22;;;8.60;99.90;;;;;;4949365;28;20664;-91
2022/12/19 12:10:32;;;;;;;9.00;6.15;;;8.60;99.90;;;;;;4963018;28;20209;-92
2022/12/19 12:13:10;;;;;;;7.32;5.22;;;8.70;99.90;;;;;;4963102;29;20196;-92
2022/12/19 12:15:49;;;;;;;9.20;5.93;;;8.70;99.90;;;;;;4961482;29;20279;-92
2022/12/19 12:18:28;;;;;;;9.05;5.95;;;8.90;99.90;;;;;;4963491;28;20228;-90
2022/12/19 12:21:05;;;;;;;7.13;5.20;;;9.10;99.90;;;;;;4962433;28;20323;-91
2022/12/19 12:23:40;;;;;;;7.78;5.85;;;9.20;99.90;;;;;;4962634;28;20204;-91
2022/12/19 12:26:17;;;;;;;5.55;4.57;;;8.80;99.90;;;;;;4963965;29;20215;-91
2022/12/19 12:28:56;;;;;;;9.55;5.80;;;8.20;99.90;;;;;;4961215;28;20770;-92
2022/12/19 12:31:38;;;;;;;8.05;5.10;;;8.00;99.90;;;;;;4960671;28;20227;-91
2022/12/19 12:34:25;;;;;;;8.95;5.82;;;7.70;99.90;;;;;;4960172;28;20254;-91
2022/12/19 12:37:04;;;;;;;6.28;4.75;;;7.50;99.90;;;;;;4959231;28;20242;-92
2022/12/19 12:39:41;;;;;;;6.55;4.90;;;7.30;99.90;;;;;;4961803;28;20264;-91
2022/12/19 12:42:21;;;;;;;9.57;5.50;;;7.00;99.90;;;;;;4963381;29;20240;-92
2022/12/19 12:44:51;;;;;;;9.38;6.35;;;6.90;99.90;;;;;;4961867;28;20284;-93
2022/12/19 12:47:23;;;;;;;5.30;4.38;;;6.90;99.90;;;;;;4955957;28;20205;-92
2022/12/19 12:49:54;;;;;;;8.95;5.38;;;6.80;99.90;;;;;;4975387;28;20205;-91
2022/12/19 12:52:27;;;;;;;7.20;4.97;;;6.90;99.90;;;;;;4977700;28;20207;-92
2022/12/19 12:54:57;;;;;;;7.15;4.97;;;7.00;99.90;;;;;;4965698;28;20212;-92
2022/12/19 12:57:37;;;;;;;12.95;6.47;;;7.10;99.90;;;;;;4964383;28;20219;-92
2022/12/19 13:00:22;;;;;;;7.45;5.13;;;7.20;99.90;;;;;;4969325;28;20284;-92
2022/12/19 13:02:54;;;;;;;7.45;4.97;;;7.40;99.90;;;;;;4954902;28;20196;-92
2022/12/19 13:05:35;;;;;;;7.78;5.15;;;7.40;99.90;;;;;;4952252;28;20205;-93
2022/12/19 13:08:31;;;;;;;6.50;5.03;;;7.40;99.90;;;;;;4949580;28;20222;-92
2022/12/19 13:11:07;;;;;;;13.38;6.35;;;7.40;99.90;;;;;;4958105;29;20200;-92